^^
Station Historical Data
 
Daily Summary for February 21, 2018 Units:  English    Metric   Both
« Previous Day
Next Day »
Daily Weekly Monthly Yearly Custom
  Current: High: Low: Average:
Temperature: 69.0 °F TemperatureF °F 63.4 °F 70.3 °F
Dew Point: 65.9 °F DewpointF °F 61.3 °F 64.9 °F
Humidity: 90% Humidity% 63% 84%
Wind Speed: 0.3mph WindSpeedMPHmph 0.0mph 2.4mph
Wind Gust: 1.1mph WindSpeedGustMPHmph - -
WindSouth - - SSW
Pressure: 30.36 in PressureIn in 30.32 in -
Precipitation: 0.00 in      
Historical Graphs
 
 
Tabular Data for February 21, 2018
Time Temperature Dew Point Pressure Wind Wind Speed Wind Gust Humidity Rainfall Rate (Hourly) solar Conditions
TemperatureF °F DewpointF °F PressureIn in Calm     Humidity% HourlyPrecipIn in SolarRadiationWatts/m^2 W/m2 Conditions
00:04 64.9 °F 61.9 °F 30.37 in SSW 0.7 mph 3.5 mph 90% 0.00 in 0.0 W/m2 RA
00:09 64.7 °F 61.7 °F 30.37 in SSW 0.3 mph 1.1 mph 90% 0.00 in 0.0 W/m2 RA
00:14 64.7 °F 62.0 °F 30.37 in SSW 1.0 mph 2.0 mph 91% 0.00 in 0.0 W/m2 CLR
00:19 64.6 °F 61.9 °F 30.37 in Calm     91% 0.00 in 0.0 W/m2 CLR
00:24 64.5 °F 61.8 °F 30.37 in Calm     91% 0.00 in 0.0 W/m2 CLR
00:29 64.4 °F 61.7 °F 30.37 in Calm   2.0 mph 91% 0.00 in 0.0 W/m2 CLR
00:34 64.3 °F 61.6 °F 30.37 in Calm     91% 0.00 in 0.0 W/m2 CLR
00:39 64.2 °F 61.5 °F 30.37 in Calm     91% 0.00 in 0.0 W/m2 CLR
00:44 64.0 °F 61.6 °F 30.37 in Calm   1.0 mph 92% 0.00 in 0.0 W/m2 CLR
00:49 63.9 °F 61.5 °F 30.37 in Calm   1.1 mph 92% 0.00 in 0.0 W/m2 CLR
00:54 63.8 °F 61.4 °F 30.37 in SSW 1.0 mph 2.0 mph 92% 0.00 in 0.0 W/m2 CLR
00:59 63.7 °F 61.3 °F 30.37 in SSW 0.1 mph 1.1 mph 92% 0.00 in 0.0 W/m2 CLR
01:04 63.6 °F 61.6 °F 30.37 in Calm   1.0 mph 93% 0.00 in 0.0 W/m2 CLR
01:09 63.6 °F 61.5 °F 30.37 in SSW 0.8 mph 1.1 mph 93% 0.00 in 0.0 W/m2 CLR
01:14 63.5 °F 61.7 °F 30.37 in South 0.6 mph 3.5 mph 94% 0.00 in 0.0 W/m2 CLR
01:19 63.5 °F 61.7 °F 30.37 in South 0.5 mph 1.1 mph 94% 0.00 in 0.0 W/m2 CLR
01:24 63.5 °F 61.7 °F 30.37 in Calm   2.0 mph 94% 0.00 in 0.0 W/m2 CLR
01:29 63.4 °F 61.9 °F 30.37 in SSW 0.7 mph 1.1 mph 95% 0.00 in 0.0 W/m2 CLR
01:34 63.5 °F 62.0 °F 30.37 in South 1.0 mph 5.0 mph 95% 0.00 in 0.0 W/m2 CLR
01:39 63.5 °F 62.0 °F 30.37 in South 0.8 mph 3.5 mph 95% 0.00 in 0.0 W/m2 CLR
01:44 63.5 °F 62.0 °F 30.37 in South 2.2 mph 3.5 mph 95% 0.00 in 0.0 W/m2 CLR
01:49 63.6 °F 62.1 °F 30.37 in South 1.0 mph 4.0 mph 95% 0.00 in 0.0 W/m2 CLR
01:54 63.6 °F 62.4 °F 30.37 in SSW 1.0 mph 2.3 mph 96% 0.00 in 0.0 W/m2 CLR
01:59 63.8 °F 62.6 °F 30.37 in WSW 2.7 mph 3.5 mph 96% 0.00 in 0.0 W/m2 CLR
02:04 63.8 °F 62.7 °F 30.37 in SSW 2.0 mph 6.0 mph 96% 0.00 in 0.0 W/m2 CLR
02:09 63.9 °F 62.7 °F 30.37 in SSW 2.0 mph 5.0 mph 96% 0.00 in 0.0 W/m2 CLR
02:14 64.0 °F 62.8 °F 30.37 in SW 3.0 mph 5.0 mph 96% 0.00 in 0.0 W/m2 CLR
02:19 64.1 °F 62.7 °F 30.37 in SW 2.0 mph 5.0 mph 95% 0.00 in 0.0 W/m2 CLR
02:24 64.2 °F 62.7 °F 30.37 in SSW 4.1 mph 6.0 mph 95% 0.00 in 0.0 W/m2 CLR
02:29 64.2 °F 62.7 °F 30.37 in SSW 2.0 mph 6.0 mph 95% 0.00 in 0.0 W/m2 CLR
02:34 64.3 °F 63.1 °F 30.37 in SSW 1.8 mph 3.5 mph 96% 0.00 in 0.0 W/m2 CLR
02:39 64.3 °F 63.1 °F 30.37 in SSW 2.1 mph 3.5 mph 96% 0.00 in 0.0 W/m2 CLR
02:44 64.3 °F 63.1 °F 30.37 in SSW 1.0 mph 4.0 mph 96% 0.00 in 0.0 W/m2 CLR
02:49 64.3 °F 63.1 °F 30.37 in SW 2.9 mph 4.0 mph 96% 0.00 in 0.0 W/m2 CLR
02:54 64.4 °F 63.2 °F 30.37 in WSW 1.9 mph 4.6 mph 96% 0.00 in 0.0 W/m2 CLR
02:59 64.4 °F 63.2 °F 30.38 in SW 2.0 mph 4.0 mph 96% 0.00 in 0.0 W/m2 CLR
03:04 64.4 °F 63.2 °F 30.38 in SW 2.0 mph 6.0 mph 96% 0.00 in 0.0 W/m2 CLR
03:09 64.5 °F 63.3 °F 30.37 in SW 2.0 mph 4.0 mph 96% 0.00 in 0.0 W/m2 CLR
03:14 64.5 °F 63.3 °F 30.37 in SSW 0.7 mph 3.5 mph 96% 0.00 in 0.0 W/m2 CLR
03:19 64.5 °F 63.3 °F 30.37 in SSW 2.2 mph 4.6 mph 96% 0.00 in 0.0 W/m2 CLR
03:24 64.5 °F 63.3 °F 30.37 in SW 3.0 mph 3.5 mph 96% 0.00 in 0.0 W/m2 CLR
03:29 64.6 °F 63.4 °F 30.37 in SW 2.4 mph 4.6 mph 96% 0.00 in 0.0 W/m2 CLR
03:34 64.7 °F 63.5 °F 30.37 in SW 3.0 mph 5.8 mph 96% 0.00 in 0.0 W/m2 CLR
03:39 64.8 °F 63.6 °F 30.37 in SSW 4.7 mph 5.8 mph 96% 0.00 in 0.0 W/m2 CLR
03:44 64.9 °F 63.7 °F 30.37 in SSW 5.2 mph 5.8 mph 96% 0.00 in 0.0 W/m2 CLR
03:49 65.0 °F 63.8 °F 30.37 in SW 5.6 mph 6.9 mph 96% 0.00 in 0.0 W/m2 CLR
03:54 65.1 °F 63.9 °F 30.37 in South 3.8 mph 4.6 mph 96% 0.00 in 0.0 W/m2 CLR
03:59 65.2 °F 64.0 °F 30.37 in SW 3.6 mph 5.0 mph 96% 0.00 in 0.0 W/m2 CLR
04:05 65.2 °F 64.0 °F 30.37 in SSW 1.1 mph 5.8 mph 96% 0.00 in 0.0 W/m2 CLR
04:10 65.3 °F 64.1 °F 30.37 in SW 4.4 mph 5.0 mph 96% 0.00 in 0.0 W/m2 CLR
04:15 65.4 °F 64.2 °F 30.38 in SSW 3.2 mph 4.6 mph 96% 0.00 in 0.0 W/m2 CLR
04:20 65.4 °F 64.2 °F 30.37 in SW 3.4 mph 5.8 mph 96% 0.00 in 0.0 W/m2 CLR
04:25 65.4 °F 64.2 °F 30.37 in SW 3.1 mph 4.6 mph 96% 0.00 in 0.0 W/m2 CLR
04:30 65.4 °F 64.2 °F 30.37 in SSE 2.2 mph 3.5 mph 96% 0.00 in 0.0 W/m2 CLR
04:35 65.5 °F 64.3 °F 30.37 in SSW 2.7 mph 4.6 mph 96% 0.00 in 0.0 W/m2 CLR
04:40 65.5 °F 64.3 °F 30.37 in South 1.4 mph 3.5 mph 96% 0.00 in 0.0 W/m2 CLR
04:45 65.5 °F 64.3 °F 30.37 in South 2.0 mph 3.5 mph 96% 0.00 in 0.0 W/m2 CLR
04:50 65.5 °F 64.3 °F 30.37 in SSW 2.8 mph 4.6 mph 96% 0.00 in 0.0 W/m2 CLR
04:55 65.5 °F 64.3 °F 30.37 in SSW 2.0 mph 3.5 mph 96% 0.00 in 0.0 W/m2 CLR
05:00 65.6 °F 64.4 °F 30.37 in SSW 2.4 mph 6.0 mph 96% 0.00 in 0.0 W/m2 CLR
05:05 65.6 °F 64.4 °F 30.37 in South 2.8 mph 3.5 mph 96% 0.00 in 0.0 W/m2 CLR
05:10 65.6 °F 64.4 °F 30.37 in SSW 2.8 mph 3.5 mph 96% 0.00 in 0.0 W/m2 CLR
05:15 65.6 °F 64.4 °F 30.37 in SW 2.1 mph 3.5 mph 96% 0.00 in 0.0 W/m2 CLR
05:20 65.6 °F 64.4 °F 30.37 in SSW 2.1 mph 5.0 mph 96% 0.00 in 0.0 W/m2 CLR
05:25 65.6 °F 64.4 °F 30.37 in SSW 3.0 mph 6.9 mph 96% 0.00 in 0.0 W/m2 CLR
05:30 65.7 °F 64.5 °F 30.38 in SW 3.6 mph 5.8 mph 96% 0.00 in 0.0 W/m2 CLR
05:35 65.7 °F 64.5 °F 30.38 in South 1.6 mph 3.5 mph 96% 0.00 in 0.0 W/m2 CLR
05:40 65.6 °F 64.4 °F 30.38 in SSW 3.8 mph 6.9 mph 96% 0.00 in 0.0 W/m2 CLR
05:45 65.7 °F 64.5 °F 30.38 in SSW 2.7 mph 3.5 mph 96% 0.00 in 0.0 W/m2 CLR
05:50 65.6 °F 64.4 °F 30.38 in SSW 2.2 mph 3.5 mph 96% 0.00 in 0.0 W/m2 CLR
05:55 65.6 °F 64.4 °F 30.38 in SSW 2.8 mph 5.8 mph 96% 0.00 in 0.0 W/m2 CLR
06:00 65.6 °F 64.4 °F 30.38 in South 2.3 mph 3.5 mph 96% 0.00 in 0.0 W/m2 CLR
06:05 65.6 °F 64.4 °F 30.39 in South 1.3 mph 3.5 mph 96% 0.00 in 0.0 W/m2 CLR
06:10 65.6 °F 64.4 °F 30.39 in SW 1.8 mph 3.5 mph 96% 0.00 in 0.0 W/m2 CLR
06:15 65.6 °F 64.4 °F 30.39 in South 1.8 mph 3.5 mph 96% 0.00 in 0.0 W/m2 CLR
06:20 65.6 °F 64.4 °F 30.39 in SSW 1.2 mph 3.5 mph 96% 0.00 in 0.0 W/m2 CLR
06:25 65.6 °F 64.4 °F 30.39 in SSW 0.5 mph 2.3 mph 96% 0.00 in 0.0 W/m2 CLR
06:30 65.6 °F 64.4 °F 30.39 in SSW 1.6 mph 3.5 mph 96% 0.00 in 0.0 W/m2 CLR
06:35 65.6 °F 64.4 °F 30.39 in SSW 1.1 mph 2.3 mph 96% 0.00 in 0.0 W/m2 CLR
06:40 65.6 °F 64.4 °F 30.39 in South 0.4 mph 1.1 mph 96% 0.00 in 0.0 W/m2 CLR
06:45 65.6 °F 64.4 °F 30.40 in SW 1.6 mph 3.5 mph 96% 0.00 in 0.0 W/m2 CLR
06:50 65.6 °F 64.4 °F 30.40 in SSW 2.0 mph 3.5 mph 96% 0.00 in 0.0 W/m2 CLR
06:55 65.6 °F 64.4 °F 30.40 in SSW 0.3 mph 3.5 mph 96% 0.00 in 0.0 W/m2 CLR
07:00 65.5 °F 64.3 °F 30.40 in SSW 0.9 mph 2.3 mph 96% 0.00 in 0.0 W/m2 CLR
07:05 65.5 °F 64.3 °F 30.40 in SSW 0.1 mph 1.1 mph 96% 0.00 in 0.0 W/m2 CLR
07:10 65.5 °F 64.3 °F 30.40 in SSW 0.1 mph 1.1 mph 96% 0.00 in 8.4 W/m2 CLR
07:15 65.5 °F 64.3 °F 30.40 in SSW 1.7 mph 3.0 mph 96% 0.00 in 13.2 W/m2 CLR
07:20 65.4 °F 64.2 °F 30.40 in South 0.7 mph 2.3 mph 96% 0.00 in 30.0 W/m2 CLR
07:25 65.5 °F 64.3 °F 30.40 in SSW 2.0 mph 3.5 mph 96% 0.00 in 30.0 W/m2 CLR
07:30 65.6 °F 64.7 °F 30.40 in South 1.6 mph 4.6 mph 97% 0.00 in 22.8 W/m2 CLR
07:35 65.6 °F 64.7 °F 30.40 in SSW 2.3 mph 3.5 mph 97% 0.00 in 27.6 W/m2 CLR
07:40 65.6 °F 64.7 °F 30.40 in SSW 1.1 mph 2.3 mph 97% 0.00 in 38.4 W/m2 CLR
07:45 65.7 °F 64.8 °F 30.40 in SSW 1.7 mph 3.5 mph 97% 0.00 in 48.0 W/m2 CLR
07:50 65.8 °F 64.9 °F 30.40 in South 1.9 mph 3.5 mph 97% 0.00 in 50.4 W/m2 CLR
07:55 65.8 °F 64.9 °F 30.41 in SW 2.6 mph 4.0 mph 97% 0.00 in 56.4 W/m2 CLR
08:00 65.9 °F 65.0 °F 30.41 in South 1.8 mph 3.5 mph 97% 0.00 in 69.6 W/m2 CLR
08:05 66.0 °F 65.1 °F 30.41 in South 1.9 mph 3.5 mph 97% 0.00 in 80.4 W/m2 CLR
08:10 66.2 °F 65.3 °F 30.41 in South 1.0 mph 3.5 mph 97% 0.00 in 74.4 W/m2 CLR
08:15 66.3 °F 65.1 °F 30.41 in SSW 2.8 mph 4.6 mph 96% 0.00 in 58.8 W/m2 CLR
08:20 66.4 °F 65.2 °F 30.41 in SSW 5.7 mph 9.2 mph 96% 0.00 in 64.8 W/m2 CLR
08:25 66.5 °F 65.3 °F 30.41 in SSW 3.4 mph 5.8 mph 96% 0.00 in 56.4 W/m2 CLR
08:30 66.6 °F 65.4 °F 30.41 in SSW 3.0 mph 4.6 mph 96% 0.00 in 92.4 W/m2 CLR
08:35 66.7 °F 65.5 °F 30.41 in SSW 2.6 mph 4.0 mph 96% 0.00 in 135.6 W/m2 CLR
08:40 66.9 °F 65.7 °F 30.41 in South 2.7 mph 3.5 mph 96% 0.00 in 141.6 W/m2 CLR
08:45 67.1 °F 65.6 °F 30.41 in SSW 5.6 mph 8.1 mph 95% 0.00 in 230.4 W/m2 CLR
08:50 67.3 °F 65.8 °F 30.41 in SW 5.5 mph 8.1 mph 95% 0.00 in 158.4 W/m2 CLR
08:55 67.5 °F 65.7 °F 30.41 in SW 3.9 mph 6.9 mph 94% 0.00 in 172.8 W/m2 CLR
09:00 67.7 °F 65.9 °F 30.41 in SW 4.8 mph 6.9 mph 94% 0.00 in 183.6 W/m2 CLR
09:05 68.0 °F 65.9 °F 30.41 in SSW 4.2 mph 5.8 mph 93% 0.00 in 189.6 W/m2 CLR
09:11 68.3 °F 66.2 °F 30.41 in SW 4.1 mph 5.8 mph 93% 0.00 in 208.8 W/m2 CLR
09:16 68.6 °F 66.2 °F 30.41 in SSW 4.2 mph 6.9 mph 92% 0.00 in 259.2 W/m2 CLR
09:21 69.1 °F 66.4 °F 30.41 in WSW 1.8 mph 3.5 mph 91% 0.00 in 295.2 W/m2 CLR
09:26 69.7 °F 67.0 °F 30.41 in SW 4.5 mph 6.9 mph 91% 0.00 in 534.0 W/m2 CLR
09:31 70.2 °F 66.5 °F 30.41 in SSW 6.5 mph 9.2 mph 88% 0.00 in 369.6 W/m2 CLR
09:36 70.7 °F 66.6 °F 30.41 in SSW 6.1 mph 8.1 mph 87% 0.00 in 314.4 W/m2 CLR
09:41 71.0 °F 66.9 °F 30.41 in SSW 1.7 mph 4.0 mph 87% 0.00 in 370.8 W/m2 CLR
09:46 71.2 °F 66.5 °F 30.41 in WSW 8.3 mph 11.5 mph 85% 0.00 in 345.6 W/m2 CLR
09:51 71.3 °F 66.2 °F 30.41 in SW 2.9 mph 4.6 mph 84% 0.00 in 308.4 W/m2 CLR
09:56 71.3 °F 66.2 °F 30.41 in SW 4.0 mph 10.4 mph 84% 0.00 in 219.6 W/m2 CLR
10:01 71.2 °F 66.1 °F 30.42 in WSW 7.5 mph 11.5 mph 84% 0.00 in 135.6 W/m2 CLR
10:06 71.2 °F 66.1 °F 30.42 in SSW 6.9 mph 9.2 mph 84% 0.00 in 169.2 W/m2 CLR
10:11 71.1 °F 66.0 °F 30.42 in WSW 6.9 mph 9.2 mph 84% 0.00 in 114.0 W/m2 CLR
10:16 71.0 °F 65.9 °F 30.42 in West 3.8 mph 5.8 mph 84% 0.00 in 166.8 W/m2 CLR
10:21 71.0 °F 65.9 °F 30.42 in SW 8.9 mph 12.7 mph 84% 0.00 in 164.4 W/m2 CLR
10:26 71.0 °F 65.9 °F 30.42 in SW 2.8 mph 5.0 mph 84% 0.00 in 139.2 W/m2 CLR
10:31 71.0 °F 65.9 °F 30.42 in SW 4.9 mph 8.1 mph 84% 0.00 in 250.8 W/m2 CLR
10:36 71.0 °F 65.6 °F 30.42 in SW 5.8 mph 10.4 mph 83% 0.00 in 236.4 W/m2 CLR
10:41 71.1 °F 65.7 °F 30.42 in West 2.9 mph 6.9 mph 83% 0.00 in 153.6 W/m2 CLR
10:46 71.1 °F 65.7 °F 30.42 in SSW 4.6 mph 10.4 mph 83% 0.00 in 156.0 W/m2 CLR
10:51 71.2 °F 65.8 °F 30.42 in SW 6.3 mph 9.2 mph 83% 0.00 in 195.6 W/m2 CLR
10:56 71.3 °F 65.5 °F 30.42 in SSW 5.8 mph 9.2 mph 82% 0.00 in 276.0 W/m2 CLR
11:01 71.6 °F 66.2 °F 30.42 in SW 5.6 mph 10.4 mph 83% 0.00 in 342.0 W/m2 CLR
11:06 72.2 °F 66.0 °F 30.42 in West 7.7 mph 8.1 mph 81% 0.00 in 417.6 W/m2 CLR
11:11 72.5 °F 66.0 °F 30.42 in SW 8.5 mph 11.5 mph 80% 0.00 in 325.2 W/m2 CLR
11:16 72.7 °F 66.2 °F 30.42 in WSW 6.2 mph 9.2 mph 80% 0.00 in 270.0 W/m2 CLR
11:21 72.8 °F 66.3 °F 30.42 in SW 4.2 mph 5.8 mph 80% 0.00 in 314.4 W/m2 CLR
11:26 73.0 °F 66.1 °F 30.42 in SSE 5.3 mph 9.2 mph 79% 0.00 in 333.6 W/m2 CLR
11:31 73.2 °F 66.3 °F 30.42 in SSW 6.0 mph 11.5 mph 79% 0.00 in 445.2 W/m2 CLR
11:36 73.4 °F 66.1 °F 30.41 in SW 6.4 mph 9.2 mph 78% 0.00 in 253.2 W/m2 CLR
11:41 73.5 °F 65.8 °F 30.41 in SW 8.2 mph 13.8 mph 77% 0.00 in 223.2 W/m2 CLR
11:46 73.4 °F 66.1 °F 30.41 in WSW 2.8 mph 5.0 mph 78% 0.00 in 206.4 W/m2 CLR
11:51 73.4 °F 66.1 °F 30.41 in SW 2.7 mph 6.9 mph 78% 0.00 in 312.0 W/m2 CLR
11:56 73.5 °F 66.2 °F 30.41 in SW 1.4 mph 6.9 mph 78% 0.00 in 286.8 W/m2 CLR
12:01 73.7 °F 66.0 °F 30.41 in SSW 2.9 mph 4.6 mph 77% 0.00 in 195.6 W/m2 CLR
12:06 73.8 °F 66.1 °F 30.41 in WSW 1.6 mph 3.5 mph 77% 0.00 in 242.4 W/m2 CLR
12:11 73.9 °F 66.2 °F 30.41 in SW 1.3 mph 9.2 mph 77% 0.00 in 205.2 W/m2 CLR
12:16 73.9 °F 66.6 °F 30.41 in SSW 2.9 mph 5.8 mph 78% 0.00 in 331.2 W/m2 CLR
12:21 74.1 °F 66.4 °F 30.40 in SW 1.1 mph 7.0 mph 77% 0.00 in 306.0 W/m2 CLR
12:26 74.2 °F 66.1 °F 30.40 in WSW 4.7 mph 6.0 mph 76% 0.00 in 291.6 W/m2 CLR
12:31 74.4 °F 66.3 °F 30.40 in WSW 3.8 mph 9.2 mph 76% 0.00 in 375.6 W/m2 CLR
12:36 74.6 °F 66.5 °F 30.39 in SW 3.4 mph 4.6 mph 76% 0.00 in 312.0 W/m2 CLR
12:41 74.7 °F 66.2 °F 30.39 in SSW 4.9 mph 4.9 mph 75% 0.00 in 348.0 W/m2 CLR
12:46 74.9 °F 66.4 °F 30.39 in SSW 2.1 mph 5.0 mph 75% 0.00 in 534.0 W/m2 CLR
12:51 75.2 °F 66.7 °F 30.39 in SW 3.4 mph 6.9 mph 75% 0.00 in 322.8 W/m2 CLR
12:56 75.4 °F 66.1 °F 30.38 in SW 5.4 mph 11.5 mph 73% 0.00 in 292.8 W/m2 CLR
13:01 75.5 °F 66.6 °F 30.38 in SW 5.5 mph 6.9 mph 74% 0.00 in 270.0 W/m2 CLR
13:06 75.5 °F 66.6 °F 30.38 in WSW 5.0 mph 6.9 mph 74% 0.00 in 325.2 W/m2 CLR
13:11 75.5 °F 66.6 °F 30.38 in SSW 3.3 mph 5.8 mph 74% 0.00 in 358.8 W/m2 CLR
13:16 75.7 °F 66.8 °F 30.38 in West 2.1 mph 3.5 mph 74% 0.00 in 303.6 W/m2 CLR
13:21 75.9 °F 67.0 °F 30.37 in SW 4.0 mph 6.9 mph 74% 0.00 in 504.0 W/m2 CLR
13:26 76.5 °F 67.2 °F 30.37 in WSW 3.4 mph 11.5 mph 73% 0.00 in 1141.2 W/m2 CLR
13:31 77.1 °F 67.0 °F 30.37 in SSW 2.4 mph 3.5 mph 71% 0.00 in 283.2 W/m2 CLR
13:36 77.3 °F 66.3 °F 30.37 in SSE 1.8 mph 6.9 mph 69% 0.00 in 225.6 W/m2 CLR
13:41 77.2 °F 66.2 °F 30.37 in SW 5.1 mph 8.1 mph 69% 0.00 in 177.6 W/m2 CLR
13:46 77.2 °F 66.7 °F 30.37 in West 0.9 mph 2.3 mph 70% 0.00 in 208.8 W/m2 CLR
13:51 77.1 °F 66.6 °F 30.37 in WSW 1.8 mph 2.3 mph 70% 0.00 in 236.4 W/m2 CLR
13:56 77.1 °F 66.6 °F 30.36 in WSW 3.5 mph 5.8 mph 70% 0.00 in 350.4 W/m2 CLR
14:01 77.2 °F 67.1 °F 30.36 in SW 2.8 mph 3.5 mph 71% 0.00 in 306.0 W/m2 CLR
14:06 77.4 °F 66.4 °F 30.36 in SSW 3.5 mph 4.0 mph 69% 0.00 in 278.4 W/m2 CLR
14:11 77.4 °F 66.4 °F 30.36 in SW 0.1 mph 3.5 mph 69% 0.00 in 344.4 W/m2 CLR
14:16 77.5 °F 66.5 °F 30.36 in WSW 4.0 mph 6.9 mph 69% 0.00 in 242.4 W/m2 CLR
14:21 77.6 °F 67.0 °F 30.35 in SSW 0.7 mph 1.1 mph 70% 0.00 in 186.0 W/m2 CLR
14:26 77.6 °F 66.6 °F 30.35 in SSW 1.5 mph 4.6 mph 69% 0.00 in 238.8 W/m2 CLR
14:31 77.8 °F 66.8 °F 30.35 in WSW 2.7 mph 2.7 mph 69% 0.00 in 344.4 W/m2 CLR
14:36 78.2 °F 66.8 °F 30.35 in South 3.8 mph 5.8 mph 68% 0.00 in 879.6 W/m2 CLR
14:41 78.8 °F 67.8 °F 30.35 in WSW 2.8 mph 2.8 mph 69% 0.00 in 770.4 W/m2 CLR
14:46 79.3 °F 67.0 °F 30.35 in West 1.9 mph 3.5 mph 66% 0.00 in 170.4 W/m2 CLR
14:51 79.6 °F 67.2 °F 30.34 in WNW 0.3 mph 3.5 mph 66% 0.00 in 242.4 W/m2 CLR
14:56 79.8 °F 67.0 °F 30.34 in NW 1.2 mph 3.5 mph 65% 0.00 in 295.2 W/m2 CLR
15:01 79.8 °F 67.0 °F 30.34 in WNW 0.7 mph 2.3 mph 65% 0.00 in 170.4 W/m2 CLR
15:06 79.8 °F 67.0 °F 30.34 in South 0.7 mph 2.3 mph 65% 0.00 in 223.2 W/m2 CLR
15:11 79.7 °F 66.4 °F 30.34 in WSW 2.5 mph 4.6 mph 64% 0.00 in 213.6 W/m2 CLR
15:16 79.5 °F 66.7 °F 30.34 in WSW 3.5 mph 5.8 mph 65% 0.00 in 270.0 W/m2 CLR
15:21 79.4 °F 66.6 °F 30.34 in SW 4.6 mph 8.1 mph 65% 0.00 in 211.2 W/m2 CLR
15:26 79.2 °F 66.4 °F 30.33 in SW 1.5 mph 3.5 mph 65% 0.00 in 244.8 W/m2 CLR
15:31 79.4 °F 67.0 °F 30.33 in SW 0.8 mph 2.3 mph 66% 0.00 in 546.0 W/m2 CLR
15:36 79.6 °F 67.2 °F 30.33 in SW 2.7 mph 5.0 mph 66% 0.00 in 348.0 W/m2 CLR
15:42 80.0 °F 66.7 °F 30.33 in WSW 5.0 mph 6.0 mph 64% 0.00 in 301.2 W/m2 CLR
15:47 80.2 °F 66.9 °F 30.33 in SSW 2.3 mph 4.6 mph 64% 0.00 in 200.4 W/m2 CLR
15:52 80.3 °F 66.6 °F 30.33 in SSW 2.8 mph 6.9 mph 63% 0.00 in 114.0 W/m2 CLR
15:57 80.1 °F 66.8 °F 30.33 in SSW 4.9 mph 4.9 mph 64% 0.00 in 198.0 W/m2 CLR
16:02 79.9 °F 66.6 °F 30.33 in WSW 1.1 mph 3.5 mph 64% 0.00 in 322.8 W/m2 CLR
16:07 79.9 °F 66.2 °F 30.33 in SSW 3.7 mph 5.8 mph 63% 0.00 in 202.8 W/m2 CLR
16:12 79.8 °F 66.1 °F 30.33 in SW 4.4 mph 5.8 mph 63% 0.00 in 141.6 W/m2 CLR
16:17 79.7 °F 66.9 °F 30.32 in WNW 1.4 mph 3.5 mph 65% 0.00 in 122.4 W/m2 CLR
16:22 79.6 °F 66.3 °F 30.33 in SSW 3.2 mph 7.0 mph 64% 0.00 in 124.8 W/m2 CLR
16:27 79.4 °F 66.2 °F 30.33 in WSW 2.9 mph 8.1 mph 64% 0.00 in 105.6 W/m2 CLR
16:32 79.2 °F 66.4 °F 30.33 in SW 3.6 mph 6.0 mph 65% 0.00 in 82.8 W/m2 CLR
16:37 78.9 °F 66.1 °F 30.33 in SW 3.5 mph 6.0 mph 65% 0.00 in 56.4 W/m2 CLR
16:42 78.6 °F 65.8 °F 30.32 in WSW 5.0 mph 8.1 mph 65% 0.00 in 72.0 W/m2 CLR
16:47 78.4 °F 66.1 °F 30.33 in SW 4.0 mph 6.9 mph 66% 0.00 in 160.8 W/m2 CLR
16:52 78.2 °F 65.9 °F 30.32 in SSW 1.9 mph 3.5 mph 66% 0.00 in 52.8 W/m2 CLR
16:57 78.1 °F 66.2 °F 30.33 in WSW 4.0 mph 5.8 mph 67% 0.00 in 52.8 W/m2 CLR
17:02 77.9 °F 65.6 °F 30.33 in SW 3.8 mph 5.0 mph 66% 0.00 in 52.8 W/m2 CLR
17:07 77.8 °F 66.0 °F 30.33 in SW 4.0 mph 4.6 mph 67% 0.00 in 58.8 W/m2 CLR
17:12 77.7 °F 65.9 °F 30.33 in SSW 1.1 mph 3.5 mph 67% 0.00 in 58.8 W/m2 CLR
17:17 77.6 °F 66.2 °F 30.33 in SSW 4.3 mph 5.8 mph 68% 0.00 in 46.8 W/m2 CLR
17:22 77.5 °F 66.1 °F 30.33 in SSW 2.1 mph 3.5 mph 68% 0.00 in 42.0 W/m2 CLR
17:27 77.4 °F 66.0 °F 30.33 in SW 2.4 mph 3.5 mph 68% 0.00 in 44.4 W/m2 CLR
17:32 77.2 °F 65.8 °F 30.33 in SSW 1.8 mph 4.6 mph 68% 0.00 in 30.0 W/m2 CLR
17:37 77.1 °F 66.1 °F 30.33 in SSW 1.3 mph 2.3 mph 69% 0.00 in 33.6 W/m2 CLR
17:42 76.9 °F 66.0 °F 30.33 in SSW 1.7 mph 3.5 mph 69% 0.00 in 21.6 W/m2 CLR
17:47 76.8 °F 65.9 °F 30.33 in SSW 0.5 mph 1.1 mph 69% 0.00 in 21.6 W/m2 CLR
17:52 76.7 °F 65.8 °F 30.33 in SSW 0.6 mph 2.3 mph 69% 0.00 in 30.0 W/m2 CLR
17:57 76.6 °F 66.1 °F 30.33 in SSW 0.3 mph 3.0 mph 70% 0.00 in 30.0 W/m2 CLR
18:02 76.5 °F 66.0 °F 30.33 in South 1.5 mph 3.5 mph 70% 0.00 in 14.4 W/m2 CLR
18:07 76.3 °F 65.8 °F 30.33 in SSW 2.5 mph 3.5 mph 70% 0.00 in 13.2 W/m2 CLR
18:12 76.2 °F 65.7 °F 30.33 in SSW 0.7 mph 2.3 mph 70% 0.00 in 6.0 W/m2 CLR
18:17 76.1 °F 66.0 °F 30.33 in SSW 1.0 mph 3.5 mph 71% 0.00 in 0.0 W/m2 CLR
18:22 76.0 °F 65.9 °F 30.34 in SSW 0.5 mph 1.1 mph 71% 0.00 in 0.0 W/m2 CLR
18:27 75.8 °F 65.7 °F 30.34 in Calm   1.1 mph 71% 0.00 in 0.0 W/m2 CLR
18:32 75.7 °F 65.6 °F 30.34 in SSW 0.9 mph 2.3 mph 71% 0.00 in 0.0 W/m2 CLR
18:37 75.5 °F 65.8 °F 30.34 in SW 0.2 mph 1.1 mph 72% 0.00 in 0.0 W/m2 CLR
18:42 75.3 °F 66.0 °F 30.34 in South 2.2 mph 3.5 mph 73% 0.00 in 0.0 W/m2 CLR
18:47 75.0 °F 66.1 °F 30.34 in South 0.8 mph 2.3 mph 74% 0.00 in 0.0 W/m2 CLR
18:52 74.7 °F 65.9 °F 30.34 in South 2.5 mph 3.5 mph 74% 0.00 in 0.0 W/m2 CLR
18:57 74.5 °F 66.4 °F 30.35 in SSW 0.1 mph 1.1 mph 76% 0.00 in 0.0 W/m2 CLR
19:02 74.2 °F 66.1 °F 30.34 in SSW 0.6 mph 2.3 mph 76% 0.00 in 0.0 W/m2 CLR
19:07 74.1 °F 66.0 °F 30.34 in South 0.3 mph 1.1 mph 76% 0.00 in 0.0 W/m2 CLR
19:12 73.9 °F 66.2 °F 30.35 in South 1.3 mph 2.0 mph 77% 0.00 in 0.0 W/m2 CLR
19:17 73.6 °F 66.3 °F 30.35 in SSW 1.3 mph 3.5 mph 78% 0.00 in 0.0 W/m2 CLR
19:22 73.4 °F 66.1 °F 30.35 in South 0.8 mph 2.3 mph 78% 0.00 in 0.0 W/m2 CLR
19:27 73.1 °F 66.2 °F 30.35 in South 0.1 mph 1.1 mph 79% 0.00 in 0.0 W/m2 CLR
19:32 72.9 °F 66.0 °F 30.35 in South 0.2 mph 1.1 mph 79% 0.00 in 0.0 W/m2 CLR
19:37 72.7 °F 66.2 °F 30.35 in South 0.8 mph 1.1 mph 80% 0.00 in 0.0 W/m2 CLR
19:42 72.5 °F 66.0 °F 30.35 in South 1.1 mph 3.5 mph 80% 0.00 in 0.0 W/m2 CLR
19:47 72.3 °F 65.8 °F 30.36 in South 0.1 mph 1.1 mph 80% 0.00 in 0.0 W/m2 CLR
19:52 72.1 °F 65.9 °F 30.36 in SE 0.5 mph 1.1 mph 81% 0.00 in 0.0 W/m2 CLR
19:57 71.9 °F 65.8 °F 30.36 in SE 0.2 mph   81% 0.00 in 0.0 W/m2 CLR
20:02 71.6 °F 65.8 °F 30.36 in South 0.4 mph 1.1 mph 82% 0.00 in 0.0 W/m2 CLR
20:07 71.4 °F 66.0 °F 30.36 in South 0.7 mph 2.3 mph 83% 0.00 in 0.0 W/m2 CLR
20:12 71.2 °F 65.8 °F 30.36 in South 1.1 mph 1.1 mph 83% 0.00 in 0.0 W/m2 CLR
20:17 71.0 °F 65.6 °F 30.36 in South 1.6 mph 3.5 mph 83% 0.00 in 0.0 W/m2 CLR
20:22 70.8 °F 65.7 °F 30.36 in South 0.6 mph 1.1 mph 84% 0.00 in 0.0 W/m2 CLR
20:27 70.6 °F 65.9 °F 30.36 in South 0.4 mph 1.1 mph 85% 0.00 in 0.0 W/m2 CLR
20:32 70.3 °F 65.6 °F 30.36 in South 0.3 mph 1.1 mph 85% 0.00 in 0.0 W/m2 CLR
20:37 70.2 °F 65.8 °F 30.36 in South 0.2 mph 1.1 mph 86% 0.00 in 0.0 W/m2 CLR
20:42 70.1 °F 65.7 °F 30.36 in South 0.3 mph 1.1 mph 86% 0.00 in 0.0 W/m2 CLR
20:47 69.9 °F 65.5 °F 30.36 in South 0.2 mph 1.1 mph 86% 0.00 in 0.0 W/m2 CLR
20:52 69.8 °F 65.4 °F 30.36 in South 1.2 mph 2.0 mph 86% 0.00 in 0.0 W/m2 CLR
20:57 69.6 °F 65.6 °F 30.36 in South 0.5 mph 2.0 mph 87% 0.00 in 0.0 W/m2 CLR
21:02 69.5 °F 65.8 °F 30.36 in SSW 0.2 mph 3.5 mph 88% 0.00 in 0.0 W/m2 CLR
21:07 69.3 °F 65.6 °F 30.37 in SSE 0.7 mph 4.0 mph 88% 0.00 in 0.0 W/m2 CLR
21:12 69.3 °F 65.6 °F 30.37 in SSE 0.2 mph 1.0 mph 88% 0.00 in 0.0 W/m2 CLR
21:17 69.2 °F 65.5 °F 30.37 in SSE 0.6 mph 2.3 mph 88% 0.00 in 0.0 W/m2 CLR
21:22 69.2 °F 65.5 °F 30.37 in Calm     88% 0.00 in 0.0 W/m2 CLR
21:27 69.2 °F 65.8 °F 30.37 in SSE 0.8 mph 2.3 mph 89% 0.00 in 0.0 W/m2 CLR
21:32 69.2 °F 65.8 °F 30.37 in SSE 0.1 mph 2.3 mph 89% 0.00 in 0.0 W/m2 CLR
21:37 69.1 °F 65.7 °F 30.37 in SSE 0.5 mph 1.1 mph 89% 0.00 in 0.0 W/m2 CLR
21:42 69.1 °F 65.7 °F 30.36 in SSE 0.6 mph 2.3 mph 89% 0.00 in 0.0 W/m2 CLR
21:47 69.1 °F 65.7 °F 30.36 in SSE 0.7 mph 2.3 mph 89% 0.00 in 0.0 W/m2 CLR
21:52 69.1 °F 65.7 °F 30.36 in SSE 0.2 mph 1.1 mph 89% 0.00 in 0.0 W/m2 CLR
21:57 69.1 °F 66.0 °F 30.36 in South 1.0 mph 3.5 mph 90% 0.00 in 0.0 W/m2 CLR
22:02 69.0 °F 65.9 °F 30.36 in South 0.3 mph 1.1 mph 90% 0.00 in 0.0 W/m2 CLR
Mint Hill, North Carolina, USA
Compliments of Weather Underground - 2.75 mb